Time;durP1;ratioP1;P1;durP2;ratioP2;P2;SDS_P1;SDS_P2;PMS_P1;PMS_P2;Temp;Humidity;BMP_temperature;BMP_pressure;BME280_temperature;BME280_humidity;BME280_pressure;Samples;Min_cycle;Max_cycle;Signal;HPM_P1;HPM_P2
2024/01/21 00:00:08;;;;;;;;;;;;;;;17.59;58.23;100006.50;2085432;28;19936;-65
2024/01/21 00:01:13;;;;;;;;;;;;;;;17.57;58.35;100013.03;2085454;28;19979;-65
2024/01/21 00:02:13;;;;;;;;;;;;;;;17.59;58.53;100017.22;2086589;28;19929;-65
2024/01/21 00:03:15;;;;;;;;;;;;;;;17.59;58.24;100027.13;2086126;28;20023;-66
2024/01/21 00:04:16;;;;;;;;;;;;;;;17.53;58.56;100022.44;2075997;28;20422;-66
2024/01/21 00:05:18;;;;;;;;;;;;;;;17.52;58.88;100026.94;2089370;28;19933;-66
2024/01/21 00:06:18;;;;;;;;;;;;;;;17.52;58.73;100021.56;2084387;28;19955;-66
2024/01/21 00:07:20;;;;;;;;;;;;;;;17.54;58.90;100024.94;2089014;28;19928;-66
2024/01/21 00:08:22;;;;;;;;;;;;;;;17.54;58.81;100019.56;2086840;28;20311;-66
2024/01/21 00:09:23;;;;;;;;;;;;;;;17.57;59.21;100023.75;2086759;28;19935;-66
2024/01/21 00:10:24;;;;;;;;;;;;;;;17.58;58.72;100023.63;2087150;28;19932;-65
2024/01/21 00:11:25;;;;;;;;;;;;;;;17.58;58.76;100015.56;2088236;28;20032;-66
2024/01/21 00:12:26;;;;;;;;;;;;;;;17.58;58.94;100014.72;2088524;28;19936;-66
2024/01/21 00:13:28;;;;;;;;;;;;;;;17.59;59.01;100011.88;2086391;28;20820;-66
2024/01/21 00:14:28;;;;;;;;;;;;;;;17.60;59.05;100015.38;2089823;28;19964;-66
2024/01/21 00:15:30;;;;;;;;;;;;;;;17.60;58.97;100010.03;2087953;28;20319;-67
2024/01/21 00:16:31;;;;;;;;;;;;;;;17.62;58.99;100016.06;2086671;28;19928;-66
2024/01/21 00:17:32;;;;;;;;;;;;;;;17.62;58.92;100024.13;2087348;28;20036;-67
2024/01/21 00:18:33;;;;;;;;;;;;;;;17.60;59.11;100010.03;2087918;28;19924;-66
2024/01/21 00:19:35;;;;;;;;;;;;;;;17.61;59.15;100012.56;2087186;28;19968;-66
2024/01/21 00:20:35;;;;;;;;;;;;;;;17.63;59.20;100021.28;2089687;28;20431;-66
2024/01/21 00:21:37;;;;;;;;;;;;;;;17.65;59.25;100016.56;2085372;28;20015;-66
2024/01/21 00:22:40;;;;;;;;;;;;;;;17.64;59.49;99997.97;2088429;28;20319;-66
2024/01/21 00:23:44;;;;;;;;;;;;;;;17.62;59.49;99989.25;2086454;28;19981;-66
2024/01/21 00:24:45;;;;;;;;;;;;;;;17.61;59.35;99999.13;2085237;28;19932;-66
2024/01/21 00:25:45;;;;;;;;;;;;;;;17.60;59.58;99991.25;2086195;28;20508;-66
2024/01/21 00:26:47;;;;;;;;;;;;;;;17.61;59.62;99990.25;2085059;28;19978;-66
2024/01/21 00:27:47;;;;;;;;;;;;;;;17.61;59.58;99999.13;2083639;28;19932;-66
2024/01/21 00:28:49;;;;;;;;;;;;;;;17.60;59.50;99989.38;2087509;28;19986;-66
2024/01/21 00:29:49;;;;;;;;;;;;;;;17.60;59.56;99993.94;2086541;28;19929;-66
2024/01/21 00:30:51;;;;;;;;;;;;;;;17.59;59.81;99982.34;2087354;28;19977;-66
2024/01/21 00:31:52;;;;;;;;;;;;;;;17.59;59.70;99971.63;2086011;28;19939;-66
2024/01/21 00:32:53;;;;;;;;;;;;;;;17.59;59.82;99985.03;2085003;28;20032;-66
2024/01/21 00:33:54;;;;;;;;;;;;;;;17.59;59.72;99979.69;2086381;28;19974;-66
2024/01/21 00:34:56;;;;;;;;;;;;;;;17.58;60.00;99988.75;2087953;28;19936;-67
2024/01/21 00:35:56;;;;;;;;;;;;;;;17.57;60.06;99979.00;2084925;28;19933;-66
2024/01/21 00:36:57;;;;;;;;;;;;;;;17.58;59.96;99983.38;2085716;28;20011;-67
2024/01/21 00:37:58;;;;;;;;;;;;;;;17.60;59.69;99991.25;2086581;28;19932;-66
2024/01/21 00:39:01;;;;;;;;;;;;;;;17.58;59.77;99986.06;2088036;28;20422;-66
2024/01/21 00:40:03;;;;;;;;;;;;;;;17.56;59.85;99996.09;2085582;28;19931;-66
2024/01/21 00:41:04;;;;;;;;;;;;;;;17.56;60.16;99984.53;2087625;28;19940;-66
2024/01/21 00:42:04;;;;;;;;;;;;;;;17.58;59.93;99995.97;2084275;28;19933;-66
2024/01/21 00:43:06;;;;;;;;;;;;;;;17.56;60.02;100000.63;2085450;28;20023;-66
2024/01/21 00:44:08;;;;;;;;;;;;;;;17.55;60.10;99999.81;2086255;28;19932;-66
2024/01/21 00:45:10;;;;;;;;;;;;;;;17.56;60.29;99979.19;2086771;28;20015;-66
2024/01/21 00:46:10;;;;;;;;;;;;;;;17.55;60.25;99981.03;2086622;28;19928;-66
2024/01/21 00:47:12;;;;;;;;;;;;;;;17.57;60.14;99978.16;2085702;28;20450;-66
2024/01/21 00:48:12;;;;;;;;;;;;;;;17.55;60.17;99972.97;2087551;28;19932;-66
2024/01/21 00:49:14;;;;;;;;;;;;;;;17.55;60.02;99964.06;2086730;28;20164;-66
2024/01/21 00:50:15;;;;;;;;;;;;;;;17.53;60.29;99961.56;2088100;28;19939;-66
2024/01/21 00:51:16;;;;;;;;;;;;;;;17.52;60.19;99973.28;2087718;28;21238;-66
2024/01/21 00:52:17;;;;;;;;;;;;;;;17.50;60.34;99964.56;2086733;28;20469;-66
2024/01/21 00:53:18;;;;;;;;;;;;;;;17.51;60.35;99957.38;2089186;28;19967;-66
2024/01/21 00:54:21;;;;;;;;;;;;;;;17.51;60.34;99950.16;2086807;28;19928;-66
2024/01/21 00:55:23;;;;;;;;;;;;;;;17.50;60.30;99953.00;2082974;28;20016;-67
2024/01/21 00:56:23;;;;;;;;;;;;;;;17.49;60.35;99949.47;2087976;28;19964;-66
2024/01/21 00:57:24;;;;;;;;;;;;;;;17.49;60.34;99949.47;2087882;28;20660;-66
2024/01/21 00:58:25;;;;;;;;;;;;;;;17.48;60.17;99939.75;2088243;28;20025;-66
2024/01/21 00:59:26;;;;;;;;;;;;;;;17.48;60.38;99942.44;2084218;28;20163;-66
2024/01/21 01:00:28;;;;;;;;;;;;;;;17.48;60.17;99945.13;2088261;28;20027;-66
2024/01/21 01:01:30;;;;;;;;;;;;;;;17.46;60.31;99936.38;2087467;28;19936;-67
2024/01/21 01:02:31;;;;;;;;;;;;;;;17.46;60.15;99944.44;2087065;28;19964;-66
2024/01/21 01:03:33;;;;;;;;;;;;;;;17.46;60.22;99943.59;2087378;28;19928;-67
2024/01/21 01:04:35;;;;;;;;;;;;;;;17.43;60.37;99931.34;2088632;28;20524;-67
2024/01/21 01:05:36;;;;;;;;;;;;;;;17.44;60.23;99946.47;2089071;28;19935;-66
2024/01/21 01:06:37;;;;;;;;;;;;;;;17.44;60.39;99943.78;2085242;28;21013;-66
2024/01/21 01:07:38;;;;;;;;;;;;;;;17.43;60.23;99952.81;2087346;28;19928;-66
2024/01/21 01:08:39;;;;;;;;;;;;;;;17.42;60.35;99956.50;2085459;28;21307;-66
2024/01/21 01:09:42;;;;;;;;;;;;;;;17.42;60.36;99967.22;2087474;28;19963;-66
2024/01/21 01:10:43;;;;;;;;;;;;;;;17.41;60.22;99966.41;2083976;28;20143;-66
2024/01/21 01:11:44;;;;;;;;;;;;;;;17.40;60.25;99975.44;2085518;28;19929;-66
2024/01/21 01:12:46;;;;;;;;;;;;;;;17.40;60.50;99967.38;2085133;28;20366;-66
2024/01/21 01:13:46;;;;;;;;;;;;;;;17.40;60.47;99983.47;2085784;28;20287;-66
2024/01/21 01:14:47;;;;;;;;;;;;;;;17.39;60.24;99984.50;2086900;28;19960;-66
2024/01/21 01:15:48;;;;;;;;;;;;;;;17.38;60.23;99995.38;2083181;28;20299;-66
2024/01/21 01:16:49;;;;;;;;;;;;;;;17.36;60.42;99994.72;2086738;28;19928;-66
2024/01/21 01:17:51;;;;;;;;;;;;;;;17.37;60.33;99996.38;2086102;28;20046;-66
2024/01/21 01:18:52;;;;;;;;;;;;;;;17.37;60.35;100001.75;2085042;28;19932;-66
2024/01/21 01:19:53;;;;;;;;;;;;;;;17.36;60.43;100013.47;2083008;28;19939;-66
2024/01/21 01:20:55;;;;;;;;;;;;;;;17.34;60.52;100010.94;2088817;28;20016;-66
2024/01/21 01:21:55;;;;;;;;;;;;;;;17.34;60.65;100010.13;2083275;28;19981;-66
2024/01/21 01:22:58;;;;;;;;;;;;;;;17.32;60.71;100012.94;2086735;28;20511;-66
2024/01/21 01:23:58;;;;;;;;;;;;;;;17.33;60.68;100011.13;2087684;28;20047;-66
2024/01/21 01:25:01;;;;;;;;;;;;;;;17.32;60.53;100017.47;2086276;28;19929;-66
2024/01/21 01:26:02;;;;;;;;;;;;;;;17.32;60.65;100012.09;2087428;28;20503;-66
2024/01/21 01:27:04;;;;;;;;;;;;;;;17.30;60.61;100008.75;2087302;28;20063;-66
2024/01/21 01:28:04;;;;;;;;;;;;;;;17.30;60.93;100014.09;2082784;28;19928;-66
2024/01/21 01:29:05;;;;;;;;;;;;;;;17.28;60.68;100011.59;2084584;28;20118;-66
2024/01/21 01:30:07;;;;;;;;;;;;;;;17.28;60.73;100002.72;2085263;28;20441;-66
2024/01/21 01:31:08;;;;;;;;;;;;;;;17.27;60.81;100011.75;2083570;28;19986;-67
2024/01/21 01:32:10;;;;;;;;;;;;;;;17.26;60.82;100002.03;2084215;28;19983;-66
2024/01/21 01:33:10;;;;;;;;;;;;;;;17.25;60.97;99998.53;2085947;28;19928;-66
2024/01/21 01:34:12;;;;;;;;;;;;;;;17.25;61.12;100003.06;2085049;28;20378;-66
2024/01/21 01:35:13;;;;;;;;;;;;;;;17.22;60.87;99992.63;2086141;28;20277;-66
2024/01/21 01:36:15;;;;;;;;;;;;;;;17.22;61.24;99992.63;2085315;28;19967;-66
2024/01/21 01:37:15;;;;;;;;;;;;;;;17.22;61.34;99997.97;2086151;28;19936;-66
2024/01/21 01:38:17;;;;;;;;;;;;;;;17.19;60.98;100007.22;2088376;28;20015;-66
2024/01/21 01:39:17;;;;;;;;;;;;;;;17.18;61.71;99998.31;2083830;28;19933;-66
2024/01/21 01:40:20;;;;;;;;;;;;;;;17.16;61.33;99994.97;2084943;28;20053;-65
2024/01/21 01:41:21;;;;;;;;;;;;;;;17.17;61.21;99990.44;2086166;28;21529;-66
2024/01/21 01:42:23;;;;;;;;;;;;;;;17.16;61.28;99992.28;2082933;28;20019;-65
2024/01/21 01:43:23;;;;;;;;;;;;;;;17.15;61.25;99987.91;2088561;28;19925;-66
2024/01/21 01:44:25;;;;;;;;;;;;;;;17.13;61.40;99979.22;2088006;28;20065;-65
2024/01/21 01:45:25;;;;;;;;;;;;;;;17.11;61.45;99975.84;2081783;28;20358;-66
2024/01/21 01:46:27;;;;;;;;;;;;;;;17.11;61.46;99978.53;2087267;28;20015;-66
2024/01/21 01:47:28;;;;;;;;;;;;;;;17.08;61.51;99973.50;2085375;28;19932;-66
2024/01/21 01:48:30;;;;;;;;;;;;;;;17.07;61.53;99979.81;2086406;28;20043;-66
2024/01/21 01:49:31;;;;;;;;;;;;;;;17.05;61.70;99978.31;2086949;28;20415;-66
2024/01/21 01:50:34;;;;;;;;;;;;;;;17.04;61.55;99984.69;2086425;28;20027;-66
2024/01/21 01:51:36;;;;;;;;;;;;;;;17.06;61.79;99990.72;2061943;28;20548;-67
2024/01/21 01:52:38;;;;;;;;;;;;;;;17.06;61.53;99980.00;2083390;28;19983;-67
2024/01/21 01:53:38;;;;;;;;;;;;;;;17.05;61.73;99981.00;2084306;28;19955;-66
2024/01/21 01:54:40;;;;;;;;;;;;;;;17.03;61.49;99991.88;2086378;28;20379;-66
2024/01/21 01:55:44;;;;;;;;;;;;;;;17.02;61.66;99989.34;2083998;28;19972;-66
2024/01/21 01:56:45;;;;;;;;;;;;;;;17.01;61.77;99982.31;2084527;28;19928;-66
2024/01/21 01:57:47;;;;;;;;;;;;;;;16.99;61.79;99993.19;2086000;28;19929;-66
2024/01/21 01:58:48;;;;;;;;;;;;;;;17.01;61.86;99998.41;2084280;28;20658;-66
2024/01/21 01:59:50;;;;;;;;;;;;;;;17.00;61.86;99992.22;2085552;28;19935;-66
2024/01/21 02:00:52;;;;;;;;;;;;;;;16.98;61.66;100008.44;2087111;28;19932;-66
2024/01/21 02:01:53;;;;;;;;;;;;;;;16.98;61.89;100003.06;2086313;28;19979;-66
2024/01/21 02:02:54;;;;;;;;;;;;;;;16.98;61.68;100021.00;2083680;28;20968;-66
2024/01/21 02:03:57;;;;;;;;;;;;;;;16.96;61.67;100015.78;2086622;28;20403;-66
2024/01/21 02:04:59;;;;;;;;;;;;;;;16.95;61.61;100013.28;2088480;28;19924;-66
2024/01/21 02:06:00;;;;;;;;;;;;;;;16.95;61.84;100024.00;2083092;28;23477;-66
2024/01/21 02:07:01;;;;;;;;;;;;;;;16.96;61.72;100018.47;2087038;28;19931;-66
2024/01/21 02:08:02;;;;;;;;;;;;;;;16.93;61.58;100012.59;2085118;28;19966;-66
2024/01/21 02:09:04;;;;;;;;;;;;;;;16.93;61.53;100018.78;2079256;28;19986;-66
2024/01/21 02:10:05;;;;;;;;;;;;;;;16.92;61.56;100010.94;2078007;28;19940;-67
2024/01/21 02:11:08;;;;;;;;;;;;;;;16.92;61.66;100011.75;2087238;28;19935;-66
2024/01/21 02:12:09;;;;;;;;;;;;;;;16.91;61.56;100028.00;2085685;28;19932;-66
2024/01/21 02:13:10;;;;;;;;;;;;;;;16.88;61.81;100020.25;2088583;28;20031;-66
2024/01/21 02:14:11;;;;;;;;;;;;;;;16.85;61.65;100008.03;2083894;28;19955;-66
2024/01/21 02:15:13;;;;;;;;;;;;;;;16.88;61.63;100028.31;2087513;28;20202;-66
2024/01/21 02:16:13;;;;;;;;;;;;;;;16.85;61.87;100020.59;2084941;28;19940;-66
2024/01/21 02:17:14;;;;;;;;;;;;;;;16.83;61.68;100014.56;2086188;28;20015;-66
2024/01/21 02:18:16;;;;;;;;;;;;;;;16.85;61.89;100023.25;2082183;28;19935;-66
2024/01/21 02:19:23;;;;;;;;;;;;;;;16.84;61.88;100021.59;2086144;28;19940;-66
2024/01/21 02:20:25;;;;;;;;;;;;;;;16.83;61.80;100015.41;2084387;28;20016;-66
2024/01/21 02:21:25;;;;;;;;;;;;;;;16.80;61.83;100029.13;2090728;28;19933;-66
2024/01/21 02:22:27;;;;;;;;;;;;;;;16.81;61.83;100033.47;2086784;28;20428;-66
2024/01/21 02:23:30;;;;;;;;;;;;;;;16.79;61.92;100031.94;2087925;28;19973;-66
2024/01/21 02:24:31;;;;;;;;;;;;;;;16.78;62.00;100036.47;2085685;28;19928;-66
2024/01/21 02:25:33;;;;;;;;;;;;;;;16.78;61.85;100030.28;2084024;28;20045;-65
2024/01/21 02:26:33;;;;;;;;;;;;;;;16.79;61.79;100034.63;2085068;28;19924;-66
2024/01/21 02:27:35;;;;;;;;;;;;;;;16.78;61.91;100027.59;2088261;28;20024;-66
2024/01/21 02:28:36;;;;;;;;;;;;;;;16.79;61.69;100026.59;2086170;28;19928;-66
2024/01/21 02:29:38;;;;;;;;;;;;;;;16.75;61.97;100024.19;2089079;28;20640;-66
2024/01/21 02:30:41;;;;;;;;;;;;;;;16.71;61.98;100025.50;2083779;28;20367;-66
2024/01/21 02:31:42;;;;;;;;;;;;;;;16.72;61.81;100027.19;2084441;28;19940;-66
2024/01/21 02:32:43;;;;;;;;;;;;;;;16.73;61.81;100028.03;2087079;28;20295;-66
2024/01/21 02:33:44;;;;;;;;;;;;;;;16.72;61.79;100032.53;2087796;28;20024;-66
2024/01/21 02:34:45;;;;;;;;;;;;;;;16.68;62.04;100031.16;2084894;28;19940;-66
2024/01/21 02:35:46;;;;;;;;;;;;;;;16.66;62.13;100019.78;2067463;28;20773;-66
2024/01/21 02:36:47;;;;;;;;;;;;;;;16.68;62.12;100017.78;2081941;28;20535;-67
2024/01/21 02:37:48;;;;;;;;;;;;;;;16.64;62.16;100019.09;2088556;28;20005;-66
2024/01/21 02:38:51;;;;;;;;;;;;;;;16.65;62.08;100018.09;2085669;28;19924;-66
2024/01/21 02:39:52;;;;;;;;;;;;;;;16.64;62.18;100010.22;2086801;28;19937;-66
2024/01/21 02:40:53;;;;;;;;;;;;;;;16.64;62.07;100011.06;2085151;28;20043;-66
2024/01/21 02:41:54;;;;;;;;;;;;;;;16.65;61.88;100009.22;2083707;28;19936;-66
2024/01/21 02:42:55;;;;;;;;;;;;;;;16.62;62.08;100013.03;2088048;28;20370;-66
2024/01/21 02:43:56;;;;;;;;;;;;;;;16.61;61.99;100005.19;2086045;28;19978;-66
2024/01/21 02:44:58;;;;;;;;;;;;;;;16.61;62.11;100008.69;2086319;28;19936;-66
2024/01/21 02:45:58;;;;;;;;;;;;;;;16.58;62.24;100006.34;2084463;28;19940;-66
2024/01/21 02:47:00;;;;;;;;;;;;;;;16.58;62.25;100006.34;2087766;28;20467;-66
2024/01/21 02:48:00;;;;;;;;;;;;;;;16.60;61.88;100003.47;2085734;28;20423;-66
2024/01/21 02:49:02;;;;;;;;;;;;;;;16.57;62.29;99996.59;2085952;28;20047;-66
2024/01/21 02:50:03;;;;;;;;;;;;;;;16.58;62.21;100000.97;2073461;28;19932;-67
2024/01/21 02:51:05;;;;;;;;;;;;;;;16.57;62.17;99996.59;2082934;28;19932;-66
2024/01/21 02:52:05;;;;;;;;;;;;;;;16.58;62.26;100000.97;2082314;28;19928;-66
2024/01/21 02:53:07;;;;;;;;;;;;;;;16.55;62.16;100003.97;2085609;28;20321;-66
2024/01/21 02:54:09;;;;;;;;;;;;;;;16.53;62.29;100011.31;2085711;28;21467;-66
2024/01/21 02:55:10;;;;;;;;;;;;;;;16.55;62.26;100009.34;2084629;28;19955;-67
2024/01/21 02:56:19;;;;;;;;;;;;;;;16.53;62.10;100009.47;2084948;28;19929;-66
2024/01/21 02:57:21;;;;;;;;;;;;;;;16.49;62.22;100008.13;2086732;28;20574;-66
2024/01/21 02:58:21;;;;;;;;;;;;;;;16.50;62.20;100008.97;2082801;28;19947;-65
2024/01/21 02:59:23;;;;;;;;;;;;;;;16.45;62.27;100014.78;2085078;28;20025;-66
2024/01/21 03:00:23;;;;;;;;;;;;;;;16.45;62.43;100005.91;2087739;28;19928;-66
2024/01/21 03:01:25;;;;;;;;;;;;;;;16.43;62.40;100007.88;2088551;28;20012;-66
2024/01/21 03:02:26;;;;;;;;;;;;;;;16.43;62.32;100002.53;2086430;28;19925;-66
2024/01/21 03:03:27;;;;;;;;;;;;;;;16.41;62.49;100004.50;2085089;28;20384;-66
2024/01/21 03:04:28;;;;;;;;;;;;;;;16.42;62.30;100008.91;2083330;28;20310;-66
2024/01/21 03:05:29;;;;;;;;;;;;;;;16.41;62.32;100009.88;2088997;28;20011;-66
2024/01/21 03:06:30;;;;;;;;;;;;;;;16.40;62.17;100005.53;2084326;28;19939;-66
2024/01/21 03:07:31;;;;;;;;;;;;;;;16.40;62.27;100008.19;2084442;28;20023;-66
2024/01/21 03:08:32;;;;;;;;;;;;;;;16.41;62.21;100004.50;2083812;28;19932;-66
2024/01/21 03:09:35;;;;;;;;;;;;;;;16.41;62.27;100001.84;2078703;28;19979;-67
2024/01/21 03:10:36;;;;;;;;;;;;;;;16.39;62.29;100010.03;2082970;28;19937;-66
2024/01/21 03:11:38;;;;;;;;;;;;;;;16.39;62.27;100001.19;2080935;28;19929;-66
2024/01/21 03:12:38;;;;;;;;;;;;;;;16.35;62.27;99995.28;2083259;28;19939;-66
2024/01/21 03:13:40;;;;;;;;;;;;;;;16.36;62.30;100006.84;2084571;28;19989;-66
2024/01/21 03:14:41;;;;;;;;;;;;;;;16.33;62.41;100001.81;2085406;28;19936;-65
2024/01/21 03:15:41;;;;;;;;;;;;;;;16.33;62.40;100004.47;2088174;28;22193;-66
2024/01/21 03:16:43;;;;;;;;;;;;;;;16.29;62.40;100007.44;2085702;28;19943;-66
2024/01/21 03:17:43;;;;;;;;;;;;;;;16.33;62.34;100007.16;2084109;28;19929;-66
2024/01/21 03:18:45;;;;;;;;;;;;;;;16.29;62.31;100006.59;2086122;28;20039;-66
2024/01/21 03:19:46;;;;;;;;;;;;;;;16.28;62.45;100013.81;2087019;28;19940;-66
2024/01/21 03:20:47;;;;;;;;;;;;;;;16.25;62.30;100008.75;2086338;28;20077;-66
2024/01/21 03:21:48;;;;;;;;;;;;;;;16.28;62.35;100018.31;2086356;28;20429;-66
2024/01/21 03:22:49;;;;;;;;;;;;;;;16.23;62.36;100013.41;2081656;28;20015;-65
2024/01/21 03:23:50;;;;;;;;;;;;;;;16.25;62.31;100014.13;2086698;28;19928;-66
2024/01/21 03:24:53;;;;;;;;;;;;;;;16.25;62.33;100008.75;2085650;28;20044;-66
2024/01/21 03:25:54;;;;;;;;;;;;;;;16.25;62.33;100011.44;2088835;28;19932;-66
2024/01/21 03:26:55;;;;;;;;;;;;;;;16.26;62.36;100004.25;2086146;28;20545;-66
2024/01/21 03:27:56;;;;;;;;;;;;;;;16.23;62.25;100013.41;2072660;28;19940;-66
2024/01/21 03:28:58;;;;;;;;;;;;;;;16.21;62.34;100004.69;2084837;28;19928;-66
2024/01/21 03:29:58;;;;;;;;;;;;;;;16.21;62.28;100003.88;2082975;28;20362;-66
2024/01/21 03:31:00;;;;;;;;;;;;;;;16.19;62.38;100006.72;2083203;28;19932;-66
2024/01/21 03:32:00;;;;;;;;;;;;;;;16.19;62.45;100012.06;2085108;28;19928;-66
2024/01/21 03:33:01;;;;;;;;;;;;;;;16.19;62.31;100011.22;2087928;28;20020;-66
2024/01/21 03:34:03;;;;;;;;;;;;;;;16.18;62.29;100013.03;2083497;28;20030;-66
2024/01/21 03:35:04;;;;;;;;;;;;;;;16.15;62.36;100008.00;2086783;28;19964;-66
2024/01/21 03:36:06;;;;;;;;;;;;;;;16.14;62.42;100002.81;2084121;28;19933;-66
2024/01/21 03:37:07;;;;;;;;;;;;;;;16.14;62.35;100006.31;2086740;28;20296;-66
2024/01/21 03:38:08;;;;;;;;;;;;;;;16.15;62.28;100015.19;2086753;28;20051;-66
2024/01/21 03:39:09;;;;;;;;;;;;;;;16.15;62.29;100018.69;2087848;28;19928;-66
2024/01/21 03:40:11;;;;;;;;;;;;;;;16.13;62.48;100017.16;2083421;28;19935;-66
2024/01/21 03:41:13;;;;;;;;;;;;;;;16.11;62.39;100020.03;2084064;28;19929;-66
2024/01/21 03:42:15;;;;;;;;;;;;;;;16.12;62.47;100024.38;2084659;28;19928;-66
2024/01/21 03:43:17;;;;;;;;;;;;;;;16.12;62.31;100021.69;2085006;28;20462;-66
2024/01/21 03:44:18;;;;;;;;;;;;;;;16.10;62.41;100023.66;2085031;28;19960;-66
2024/01/21 03:45:20;;;;;;;;;;;;;;;16.11;62.36;100029.88;2085117;28;19928;-66
2024/01/21 03:46:20;;;;;;;;;;;;;;;16.12;62.32;100026.22;2084788;28;19933;-67
2024/01/21 03:47:22;;;;;;;;;;;;;;;16.09;62.34;100033.53;2066165;28;20139;-66
2024/01/21 03:48:22;;;;;;;;;;;;;;;16.10;62.34;100034.38;2082199;28;19929;-66
2024/01/21 03:49:25;;;;;;;;;;;;;;;16.09;62.44;100030.88;2085568;28;21118;-66
2024/01/21 03:50:25;;;;;;;;;;;;;;;16.07;62.55;100024.84;2083403;28;20031;-66
2024/01/21 03:51:27;;;;;;;;;;;;;;;16.08;62.44;100031.03;2086216;28;20478;-66
2024/01/21 03:52:27;;;;;;;;;;;;;;;16.07;62.59;100030.19;2086236;28;19928;-66
2024/01/21 03:53:29;;;;;;;;;;;;;;;16.05;62.46;100031.34;2090291;28;20007;-65
2024/01/21 03:54:30;;;;;;;;;;;;;;;16.06;62.34;100023.16;2086385;28;19932;-66
2024/01/21 03:55:33;;;;;;;;;;;;;;;16.03;62.49;100027.97;2087293;28;19941;-65
2024/01/21 03:56:33;;;;;;;;;;;;;;;16.03;62.62;100025.28;2084055;28;19924;-66
2024/01/21 03:57:35;;;;;;;;;;;;;;;16.02;62.53;100023.63;2089416;28;20816;-66
2024/01/21 03:58:35;;;;;;;;;;;;;;;16.00;62.42;100018.41;2087238;28;19939;-66
2024/01/21 03:59:40;;;;;;;;;;;;;;;16.00;62.46;100021.09;2087846;28;20066;-66
2024/01/21 04:00:40;;;;;;;;;;;;;;;15.99;62.47;100030.13;2086028;28;19979;-66
2024/01/21 04:01:45;;;;;;;;;;;;;;;15.95;62.56;100023.38;2088923;28;19932;-66
2024/01/21 04:02:45;;;;;;;;;;;;;;;15.95;62.55;100017.19;2086461;28;19933;-66
2024/01/21 04:03:47;;;;;;;;;;;;;;;15.99;62.35;100018.53;2088010;28;20376;-67
2024/01/21 04:04:48;;;;;;;;;;;;;;;15.97;62.32;100020.56;2087736;28;19928;-66
2024/01/21 04:05:49;;;;;;;;;;;;;;;15.95;62.52;100015.34;2071075;28;20398;-66
2024/01/21 04:06:50;;;;;;;;;;;;;;;15.97;62.52;100007.19;2084820;28;20396;-66
2024/01/21 04:07:51;;;;;;;;;;;;;;;15.96;62.36;100010.84;2084226;28;19971;-65
2024/01/21 04:08:52;;;;;;;;;;;;;;;15.95;62.23;100009.16;2084819;28;19925;-66
2024/01/21 04:09:53;;;;;;;;;;;;;;;15.95;62.42;100009.16;2090930;28;20019;-66
2024/01/21 04:10:55;;;;;;;;;;;;;;;15.91;62.48;100008.63;2085070;28;19928;-66
2024/01/21 04:11:57;;;;;;;;;;;;;;;15.89;62.55;100012.44;2086505;28;20426;-66
2024/01/21 04:12:58;;;;;;;;;;;;;;;15.90;62.46;100011.44;2087952;28;19929;-66
2024/01/21 04:13:59;;;;;;;;;;;;;;;15.88;62.57;100013.44;2086980;28;20024;-66
2024/01/21 04:15:00;;;;;;;;;;;;;;;15.89;62.50;100013.28;2088375;28;19947;-66
2024/01/21 04:16:02;;;;;;;;;;;;;;;15.90;62.46;100011.44;2084755;28;20027;-66
2024/01/21 04:17:02;;;;;;;;;;;;;;;15.92;62.32;100020.16;2087207;28;20770;-66
2024/01/21 04:18:04;;;;;;;;;;;;;;;15.91;62.46;100026.50;2085737;28;19929;-66
2024/01/21 04:19:05;;;;;;;;;;;;;;;15.87;62.56;100015.25;2087756;28;19939;-66
2024/01/21 04:20:08;;;;;;;;;;;;;;;15.89;62.40;100023.16;2084019;28;19940;-66
2024/01/21 04:21:10;;;;;;;;;;;;;;;15.85;62.38;100025.28;2091219;28;19928;-66
2024/01/21 04:22:10;;;;;;;;;;;;;;;15.83;62.47;100028.13;2086996;28;20440;-66
2024/01/21 04:23:12;;;;;;;;;;;;;;;15.82;62.45;100023.78;2087909;28;19967;-66
2024/01/21 04:24:13;;;;;;;;;;;;;;;15.83;62.41;100027.28;2075036;28;19924;-66
2024/01/21 04:25:14;;;;;;;;;;;;;;;15.81;62.48;100034.59;2083924;28;19959;-66
2024/01/21 04:26:16;;;;;;;;;;;;;;;15.82;62.41;100026.44;2071169;28;19932;-67
2024/01/21 04:27:18;;;;;;;;;;;;;;;15.81;62.33;100032.78;2083649;28;19940;-66
2024/01/21 04:28:19;;;;;;;;;;;;;;;15.83;62.36;100033.47;2080885;28;19932;-67
2024/01/21 04:29:20;;;;;;;;;;;;;;;15.81;62.36;100022.06;2084242;28;20015;-66
2024/01/21 04:30:21;;;;;;;;;;;;;;;15.79;62.43;100032.06;2087231;28;21263;-67
2024/01/21 04:31:22;;;;;;;;;;;;;;;15.81;62.39;100030.09;2088048;28;19928;-66
2024/01/21 04:32:24;;;;;;;;;;;;;;;15.80;62.33;100030.25;2083220;28;19932;-66
2024/01/21 04:33:24;;;;;;;;;;;;;;;15.80;62.32;100027.59;2087841;28;19933;-66
2024/01/21 04:34:26;;;;;;;;;;;;;;;15.80;62.29;100027.59;2087129;28;20039;-66
2024/01/21 04:35:26;;;;;;;;;;;;;;;15.79;62.34;100032.06;2087767;28;20468;-66
2024/01/21 04:36:28;;;;;;;;;;;;;;;15.76;62.46;100032.38;2086055;28;19968;-66
2024/01/21 04:37:29;;;;;;;;;;;;;;;15.76;62.44;100034.22;2086102;28;20584;-66
2024/01/21 04:38:29;;;;;;;;;;;;;;;15.75;62.35;100036.06;2084747;28;20032;-66
2024/01/21 04:39:31;;;;;;;;;;;;;;;15.75;62.39;100035.22;2090550;28;19924;-66
2024/01/21 04:40:31;;;;;;;;;;;;;;;15.74;62.47;100046.88;2085251;28;19932;-66
2024/01/21 04:41:34;;;;;;;;;;;;;;;15.73;62.55;100038.03;2086135;28;20007;-66
2024/01/21 04:42:35;;;;;;;;;;;;;;;15.73;62.34;100038.03;2085900;28;19935;-66
2024/01/21 04:43:36;;;;;;;;;;;;;;;15.73;62.44;100032.69;2071200;28;19971;-65
2024/01/21 04:44:37;;;;;;;;;;;;;;;15.71;62.34;100026.66;2085710;28;20453;-66
2024/01/21 04:45:39;;;;;;;;;;;;;;;15.69;62.58;100025.13;2087122;28;19967;-65
2024/01/21 04:46:40;;;;;;;;;;;;;;;15.68;62.73;100028.75;2086679;28;19932;-65
2024/01/21 04:47:41;;;;;;;;;;;;;;;15.69;62.46;100028.63;2087565;28;23248;-66
2024/01/21 04:48:42;;;;;;;;;;;;;;;15.69;62.42;100028.63;2083890;28;19943;-66
2024/01/21 04:49:44;;;;;;;;;;;;;;;15.67;62.56;100032.41;2083678;28;20039;-66
2024/01/21 04:50:44;;;;;;;;;;;;;;;15.68;62.58;100032.28;2077379;28;19936;-66
2024/01/21 04:51:46;;;;;;;;;;;;;;;15.67;62.59;100032.41;2084451;28;20391;-66
2024/01/21 04:52:46;;;;;;;;;;;;;;;15.64;62.56;100028.22;2086554;28;19925;-66
2024/01/21 04:53:48;;;;;;;;;;;;;;;15.62;62.54;100032.84;2086602;28;20015;-66
2024/01/21 04:54:49;;;;;;;;;;;;;;;15.65;62.57;100022.69;2084150;28;19929;-66
2024/01/21 04:55:49;;;;;;;;;;;;;;;15.64;62.47;100023.69;2088073;28;20703;-66
2024/01/21 04:56:52;;;;;;;;;;;;;;;15.62;62.58;100024.84;2088867;28;19936;-66
2024/01/21 04:57:53;;;;;;;;;;;;;;;15.60;62.55;100016.97;2086425;28;19936;-66
2024/01/21 04:58:54;;;;;;;;;;;;;;;15.62;62.52;100020.31;2087714;28;20382;-66
2024/01/21 04:59:55;;;;;;;;;;;;;;;15.62;62.49;100019.50;2087469;28;20174;-66
2024/01/21 05:00:56;;;;;;;;;;;;;;;15.61;62.53;100017.81;2082470;28;20019;-66
2024/01/21 05:01:57;;;;;;;;;;;;;;;15.57;62.51;100019.97;2088383;28;19982;-66
2024/01/21 05:02:59;;;;;;;;;;;;;;;15.58;62.46;100018.97;2087377;28;19929;-66
2024/01/21 05:03:59;;;;;;;;;;;;;;;15.62;62.33;100030.19;2084611;28;20287;-66
2024/01/21 05:05:01;;;;;;;;;;;;;;;15.56;62.51;100031.63;2088803;28;20020;-66
2024/01/21 05:06:03;;;;;;;;;;;;;;;15.57;62.50;100032.47;2085610;28;19924;-66
2024/01/21 05:07:05;;;;;;;;;;;;;;;15.56;62.50;100034.31;2086018;28;19929;-66
2024/01/21 05:08:06;;;;;;;;;;;;;;;15.54;62.50;100038.13;2088510;28;19981;-66
2024/01/21 05:09:09;;;;;;;;;;;;;;;15.53;62.58;100039.94;2076056;28;20002;-66
2024/01/21 05:10:10;;;;;;;;;;;;;;;15.53;62.45;100039.94;2082020;28;19933;-66
2024/01/21 05:11:13;;;;;;;;;;;;;;;15.52;62.61;100027.59;2084926;28;19964;-66
2024/01/21 05:12:15;;;;;;;;;;;;;;;15.51;62.56;100028.56;2086676;28;19924;-66
2024/01/21 05:13:17;;;;;;;;;;;;;;;15.52;62.56;100030.25;2082979;28;20035;-66
2024/01/21 05:14:18;;;;;;;;;;;;;;;15.49;62.65;100032.38;2084308;28;20388;-66
2024/01/21 05:15:19;;;;;;;;;;;;;;;15.49;62.54;100033.22;2085139;28;19963;-66
2024/01/21 05:16:20;;;;;;;;;;;;;;;15.46;62.52;100030.00;2084994;28;19935;-66